createdAt,value
2022-10-20T00:01:14.491Z,96891.00
2022-10-20T00:05:18.184Z,96892.00
2022-10-20T00:09:21.196Z,96895.00
2022-10-20T00:13:25.119Z,96887.00
2022-10-20T00:17:29.631Z,96897.00
2022-10-20T00:21:33.959Z,96890.00
2022-10-20T00:26:09.069Z,96883.00
2022-10-20T00:30:12.771Z,96895.00
2022-10-20T00:34:17.269Z,96890.00
2022-10-20T00:38:51.196Z,96882.00
2022-10-20T00:42:54.276Z,96878.00
2022-10-20T00:46:58.522Z,96869.00
2022-10-20T00:51:03.134Z,96867.00
2022-10-20T00:55:08.664Z,96857.00
2022-10-20T00:59:13.630Z,96857.00
2022-10-20T01:03:20.992Z,96864.00
2022-10-20T01:07:25.463Z,96853.00
2022-10-20T01:12:02.633Z,96857.00
2022-10-20T01:16:13.859Z,96846.00
2022-10-20T01:20:36.237Z,96841.00
2022-10-20T01:25:03.280Z,96837.00
2022-10-20T01:29:14.877Z,96837.00
2022-10-20T01:33:23.092Z,96837.00
2022-10-20T01:37:48.398Z,96826.00
2022-10-20T01:41:56.854Z,96829.00
2022-10-20T01:46:02.843Z,96824.00
2022-10-20T01:50:08.152Z,96814.00
2022-10-20T01:54:22.130Z,96819.00
2022-10-20T01:59:01.064Z,96825.00
2022-10-20T02:03:33.345Z,96821.00
2022-10-20T02:07:36.956Z,96829.00
2022-10-20T02:12:16.576Z,96814.00
2022-10-20T02:16:24.056Z,96812.00
2022-10-20T02:20:29.287Z,96802.00
2022-10-20T02:25:06.386Z,96799.00
2022-10-20T02:29:14.648Z,96797.00
2022-10-20T02:33:19.239Z,96794.00
2022-10-20T02:37:23.619Z,96805.00
2022-10-20T02:41:58.059Z,96794.00
2022-10-20T02:46:01.097Z,96796.00
2022-10-20T02:50:38.040Z,96789.00
2022-10-20T02:54:42.473Z,96786.00
2022-10-20T02:59:40.353Z,96781.00
2022-10-20T03:03:43.379Z,96773.00
2022-10-20T03:07:46.510Z,96775.00
2022-10-20T03:11:50.923Z,96767.00
2022-10-20T03:16:24.669Z,96769.00
2022-10-20T03:20:27.852Z,96758.00
2022-10-20T03:25:01.756Z,96757.00
2022-10-20T03:29:40.329Z,96750.00
2022-10-20T03:33:43.529Z,96757.00
2022-10-20T03:38:20.555Z,96765.00
2022-10-20T03:42:57.199Z,96762.00
2022-10-20T03:47:10.141Z,96757.00
2022-10-20T03:51:44.090Z,96760.00
2022-10-20T03:56:20.990Z,96766.00
2022-10-20T04:01:18.790Z,96761.00
2022-10-20T04:05:57.032Z,96763.00
2022-10-20T04:10:31.082Z,96759.00
2022-10-20T04:15:07.822Z,96752.00
2022-10-20T04:19:44.772Z,96741.00
2022-10-20T04:23:49.335Z,96739.00
2022-10-20T04:27:52.414Z,96730.00
2022-10-20T04:32:29.459Z,96733.00
2022-10-20T04:37:06.449Z,96736.00
2022-10-20T04:41:11.913Z,96735.00
2022-10-20T04:45:14.991Z,96728.00
2022-10-20T04:49:18.475Z,96734.00
2022-10-20T04:53:55.115Z,96723.00
2022-10-20T04:57:59.849Z,96734.00
2022-10-20T05:02:02.988Z,96728.00
2022-10-20T05:06:10.541Z,96722.00
2022-10-20T05:10:13.601Z,96725.00
2022-10-20T05:14:52.215Z,96720.00
2022-10-20T05:18:57.680Z,96726.00
2022-10-20T05:23:00.831Z,96717.00
2022-10-20T05:27:04.037Z,96714.00
2022-10-20T05:31:09.569Z,96705.00
2022-10-20T05:35:12.612Z,96704.00
2022-10-20T05:39:15.713Z,96702.00
2022-10-20T05:43:53.106Z,96702.00
2022-10-20T05:47:57.725Z,96699.00
2022-10-20T05:52:31.741Z,96705.00
2022-10-20T05:56:34.811Z,96697.00
2022-10-20T06:00:42.310Z,96693.00
2022-10-20T06:04:46.875Z,96685.00
2022-10-20T06:08:50.953Z,96689.00
2022-10-20T06:13:24.803Z,96699.00
2022-10-20T06:17:27.944Z,96701.00
2022-10-20T06:22:07.076Z,96711.00
2022-10-20T06:26:12.433Z,96717.00
2022-10-20T06:30:15.627Z,96713.00
2022-10-20T06:34:54.004Z,96705.00
2022-10-20T06:39:00.023Z,96705.00
2022-10-20T06:43:03.124Z,96706.00
2022-10-20T06:47:40.159Z,96706.00
2022-10-20T06:51:43.932Z,96714.00
2022-10-20T06:55:56.791Z,96705.00
2022-10-20T07:00:54.731Z,96699.00
2022-10-20T07:04:57.862Z,96694.00
2022-10-20T07:09:34.480Z,96695.00
2022-10-20T07:13:39.484Z,96691.00
2022-10-20T07:17:42.774Z,96698.00
2022-10-20T07:22:20.891Z,96706.00
2022-10-20T07:26:26.506Z,96714.00
2022-10-20T07:30:31.066Z,96707.00
2022-10-20T07:34:34.157Z,96717.00
2022-10-20T07:38:37.281Z,96712.00
2022-10-20T07:43:14.386Z,96705.00
2022-10-20T07:47:19.189Z,96703.00
2022-10-20T07:51:53.228Z,96700.00
2022-10-20T07:55:56.252Z,96697.00
2022-10-20T07:59:59.262Z,96698.00
2022-10-20T08:04:37.390Z,96689.00
2022-10-20T08:08:40.500Z,96694.00
2022-10-20T08:12:49.406Z,96676.00
2022-10-20T08:16:57.540Z,96672.00
2022-10-20T08:21:14.991Z,96680.00
2022-10-20T08:25:18.618Z,96676.00
2022-10-20T08:29:21.694Z,96687.00
2022-10-20T08:33:24.951Z,96687.00
2022-10-20T08:38:03.115Z,96675.00
2022-10-20T08:42:08.979Z,96676.00
2022-10-20T08:46:43.206Z,96663.00
2022-10-20T08:50:47.939Z,96650.00
2022-10-20T08:54:55.660Z,96646.00
2022-10-20T08:58:58.807Z,96645.00
2022-10-20T09:03:05.401Z,96637.00
2022-10-20T09:07:37.214Z,96647.00
2022-10-20T09:11:44.387Z,96630.00
2022-10-20T09:15:47.904Z,96627.00
2022-10-20T09:19:55.691Z,96645.00
2022-10-20T09:24:03.519Z,96633.00
2022-10-20T09:28:21.536Z,96645.00
2022-10-20T09:32:56.322Z,96640.00
2022-10-20T09:37:05.341Z,96647.00
2022-10-20T09:41:14.799Z,96619.00
2022-10-20T09:45:52.209Z,96604.00
2022-10-20T09:50:00.976Z,96615.00
2022-10-20T09:54:07.599Z,96607.00
2022-10-20T09:58:22.227Z,96603.00
2022-10-20T10:02:48.299Z,96608.00
2022-10-20T10:06:51.352Z,96604.00
2022-10-20T10:11:03.278Z,96603.00
2022-10-20T10:15:38.619Z,96612.00
2022-10-20T10:19:52.550Z,96618.00
2022-10-20T10:24:01.480Z,96627.00
2022-10-20T10:28:38.990Z,96623.00
2022-10-20T10:32:45.870Z,96614.00
2022-10-20T10:41:59.835Z,96600.00
2022-10-20T10:46:07.889Z,96591.00
2022-10-20T10:50:27.797Z,96575.00
2022-10-20T10:54:47.263Z,96568.00
2022-10-20T10:58:58.804Z,96564.00
2022-10-20T11:03:39.037Z,96545.00
2022-10-20T11:07:47.243Z,96540.00
2022-10-20T11:12:12.471Z,96550.00
2022-10-20T11:16:56.051Z,96546.00
2022-10-20T11:21:18.913Z,96547.00
2022-10-20T11:25:33.601Z,96542.00
2022-10-20T11:30:05.373Z,96531.00
2022-10-20T11:34:13.582Z,96530.00
2022-10-20T11:38:22.996Z,96517.00
2022-10-20T11:42:32.705Z,96527.00
2022-10-20T11:46:41.983Z,96524.00
2022-10-20T11:50:52.313Z,96539.00
2022-10-20T11:55:19.810Z,96527.00
2022-10-20T11:59:54.646Z,96521.00
2022-10-20T12:04:29.349Z,96509.00
2022-10-20T12:09:06.215Z,96505.00
2022-10-20T12:13:23.181Z,96502.00
2022-10-20T12:17:32.216Z,96509.00
2022-10-20T12:22:06.634Z,96497.00
2022-10-20T12:26:54.139Z,96493.00
2022-10-20T12:30:59.330Z,96484.00
2022-10-20T12:35:47.868Z,96479.00
2022-10-20T12:39:52.867Z,96464.00
2022-10-20T12:44:04.935Z,96467.00
2022-10-20T12:48:10.979Z,96475.00
2022-10-20T12:52:20.856Z,96480.00
2022-10-20T12:56:29.157Z,96491.00
2022-10-20T13:01:03.563Z,96463.00
2022-10-20T13:05:40.007Z,96441.00
2022-10-20T13:10:00.276Z,96453.00
2022-10-20T13:14:19.546Z,96448.00
2022-10-20T13:18:45.644Z,96445.00
2022-10-20T13:22:52.578Z,96464.00
2022-10-20T13:26:59.856Z,96474.00
2022-10-20T13:31:24.374Z,96472.00
2022-10-20T13:35:50.752Z,96462.00
2022-10-20T13:40:04.141Z,96463.00
2022-10-20T13:44:20.577Z,96465.00
2022-10-20T13:49:10.710Z,96461.00
2022-10-20T13:53:22.299Z,96460.00
2022-10-20T13:57:31.933Z,96459.00
2022-10-20T14:01:38.106Z,96465.00
2022-10-20T14:05:42.597Z,96466.00
2022-10-20T14:09:47.647Z,96456.00
2022-10-20T14:14:22.680Z,96456.00
2022-10-20T14:18:27.749Z,96442.00
2022-10-20T14:22:33.976Z,96452.00
2022-10-20T14:27:14.641Z,96446.00
2022-10-20T14:31:17.994Z,96463.00
2022-10-20T14:36:04.766Z,96458.00
2022-10-20T14:40:35.330Z,96483.00
2022-10-20T14:45:20.945Z,96476.00
2022-10-20T14:49:27.208Z,96466.00
2022-10-20T14:54:17.181Z,96477.00
2022-10-20T14:58:40.507Z,96477.00
2022-10-20T15:02:46.010Z,96472.00
2022-10-20T15:07:22.636Z,96471.00
2022-10-20T15:11:56.406Z,96469.00
2022-10-20T15:16:01.209Z,96473.00
2022-10-20T15:20:38.938Z,96471.00
2022-10-20T15:25:13.080Z,96459.00
2022-10-20T15:29:49.743Z,96459.00
2022-10-20T15:33:53.053Z,96454.00
2022-10-20T15:38:31.251Z,96439.00
2022-10-20T15:42:34.536Z,96425.00
2022-10-20T15:46:37.954Z,96419.00
2022-10-20T15:51:16.825Z,96410.00
2022-10-20T15:55:23.738Z,96414.00
2022-10-20T15:59:29.610Z,96423.00
2022-10-20T16:04:08.015Z,96413.00
2022-10-20T16:08:11.815Z,96392.00
2022-10-20T16:12:48.972Z,96390.00
2022-10-20T16:16:53.510Z,96386.00
2022-10-20T16:20:58.965Z,96392.00
2022-10-20T16:25:02.451Z,96368.00
2022-10-20T16:29:39.975Z,96371.00
2022-10-20T16:33:44.764Z,96355.00
2022-10-20T16:37:47.800Z,96353.00
2022-10-20T16:42:24.343Z,96366.00
2022-10-20T16:46:27.372Z,96355.00
2022-10-20T16:50:31.784Z,96357.00
2022-10-20T16:55:06.214Z,96352.00
2022-10-20T16:59:09.903Z,96340.00
2022-10-20T17:03:47.118Z,96313.00
2022-10-20T17:07:51.987Z,96296.00
2022-10-20T17:11:55.004Z,96280.00
2022-10-20T17:16:32.989Z,96310.00
2022-10-20T17:20:38.934Z,96318.00
2022-10-20T17:24:43.368Z,96308.00
2022-10-20T17:29:17.133Z,96321.00
2022-10-20T17:33:54.948Z,96318.00
2022-10-20T17:38:32.063Z,96307.00
2022-10-20T17:43:08.622Z,96306.00
2022-10-20T17:47:13.066Z,96303.00
2022-10-20T17:51:47.042Z,96308.00
2022-10-20T17:56:24.664Z,96320.00
2022-10-20T18:00:50.997Z,96342.00
2022-10-20T18:05:04.104Z,96352.00
2022-10-20T18:09:37.833Z,96357.00
2022-10-20T18:14:14.708Z,96349.00
2022-10-20T18:18:17.760Z,96349.00
2022-10-20T18:22:22.251Z,96349.00
2022-10-20T18:26:56.071Z,96348.00
2022-10-20T18:31:32.796Z,96349.00
2022-10-20T18:35:37.911Z,96340.00
2022-10-20T18:40:11.762Z,96345.00
2022-10-20T18:44:50.256Z,96361.00
2022-10-20T18:49:24.504Z,96344.00
2022-10-20T18:54:02.382Z,96339.00
2022-10-20T18:58:38.426Z,96338.00
2022-10-20T19:03:35.942Z,96318.00
2022-10-20T19:08:14.456Z,96317.00
2022-10-20T19:12:48.470Z,96323.00
2022-10-20T19:17:25.190Z,96325.00
2022-10-20T19:22:02.162Z,96315.00
2022-10-20T19:26:10.959Z,96322.00
2022-10-20T19:30:14.254Z,96327.00
2022-10-20T19:34:47.932Z,96347.00
2022-10-20T19:39:27.499Z,96337.00
2022-10-20T19:44:03.341Z,96328.00
2022-10-20T19:48:37.323Z,96328.00
2022-10-20T19:53:14.321Z,96334.00
2022-10-20T19:57:17.390Z,96332.00
2022-10-20T20:01:55.891Z,96316.00
2022-10-20T20:06:32.663Z,96326.00
2022-10-20T20:11:21.301Z,96316.00
2022-10-20T20:15:49.115Z,96313.00
2022-10-20T20:19:53.603Z,96323.00
2022-10-20T20:24:30.704Z,96322.00
2022-10-20T20:28:33.989Z,96308.00
2022-10-20T20:33:07.927Z,96317.00
2022-10-20T20:37:46.302Z,96324.00
2022-10-20T20:41:49.766Z,96337.00
2022-10-20T20:46:27.640Z,96349.00
2022-10-20T20:50:30.695Z,96355.00
2022-10-20T20:54:35.156Z,96368.00
2022-10-20T20:58:38.698Z,96360.00
2022-10-20T21:02:45.085Z,96353.00
2022-10-20T21:07:01.786Z,96355.00
2022-10-20T21:11:09.152Z,96362.00
2022-10-20T21:15:12.418Z,96356.00
2022-10-20T21:19:15.597Z,96355.00
2022-10-20T21:23:18.620Z,96358.00
2022-10-20T21:27:57.111Z,96356.00
2022-10-20T21:32:00.170Z,96377.00
2022-10-20T21:36:38.694Z,96383.00
2022-10-20T21:40:41.821Z,96397.00
2022-10-20T21:45:19.253Z,96408.00
2022-10-20T21:49:25.476Z,96417.00
2022-10-20T21:53:28.766Z,96417.00
2022-10-20T21:57:31.821Z,96418.00
2022-10-20T22:02:13.635Z,96405.00
2022-10-20T22:06:19.987Z,96400.00
2022-10-20T22:10:50.634Z,96388.00
2022-10-20T22:14:53.644Z,96401.00
2022-10-20T22:19:31.408Z,96405.00
2022-10-20T22:23:35.992Z,96405.00
2022-10-20T22:28:10.308Z,96403.00
2022-10-20T22:32:13.452Z,96394.00
2022-10-20T22:36:16.546Z,96387.00
2022-10-20T22:40:21.232Z,96389.00
2022-10-20T22:44:24.263Z,96389.00
2022-10-20T22:48:54.414Z,96386.00
2022-10-20T22:52:57.467Z,96387.00
2022-10-20T22:57:01.885Z,96393.00
2022-10-20T23:01:36.187Z,96384.00
2022-10-20T23:05:39.248Z,96383.00
2022-10-20T23:09:42.311Z,96367.00
2022-10-20T23:13:47.326Z,96362.00
2022-10-20T23:17:50.442Z,96338.00
2022-10-20T23:22:27.056Z,96324.00
2022-10-20T23:26:30.107Z,96338.00
2022-10-20T23:31:09.364Z,96335.00
2022-10-20T23:35:12.567Z,96332.00
2022-10-20T23:39:49.151Z,96299.00
2022-10-20T23:43:52.265Z,96272.00
2022-10-20T23:48:28.817Z,96278.00
2022-10-20T23:52:33.251Z,96271.00
2022-10-20T23:56:36.601Z,96258.00
